createdAt,value
2017-04-23T00:00:29.435Z,9.62
2017-04-23T00:01:29.194Z,8.62
2017-04-23T00:02:28.715Z,9.35
2017-04-23T00:03:28.568Z,11.28
2017-04-23T00:04:28.078Z,9.62
2017-04-23T00:05:27.649Z,12.87
2017-04-23T00:06:28.244Z,9.63
2017-04-23T00:07:27.799Z,9.17
2017-04-23T00:08:27.323Z,7.62
2017-04-23T00:09:26.882Z,8.70
2017-04-23T00:10:27.170Z,9.18
2017-04-23T00:11:26.734Z,8.30
2017-04-23T00:12:26.355Z,8.03
2017-04-23T00:13:26.039Z,9.32
2017-04-23T00:14:25.559Z,12.62
2017-04-23T00:15:25.330Z,11.25
2017-04-23T00:16:24.855Z,10.50
2017-04-23T00:17:24.672Z,10.60
2017-04-23T00:18:25.072Z,11.88
2017-04-23T00:19:24.626Z,8.95
2017-04-23T00:20:24.174Z,8.53
2017-04-23T00:21:23.755Z,9.57
2017-04-23T00:22:23.679Z,6.97
2017-04-23T00:23:23.251Z,13.08
2017-04-23T00:24:23.004Z,14.13
2017-04-23T00:25:23.371Z,7.38
2017-04-23T00:26:23.042Z,7.27
2017-04-23T00:27:22.742Z,9.67
2017-04-23T00:28:22.280Z,8.38
2017-04-23T00:29:21.818Z,7.48
2017-04-23T00:30:22.278Z,9.08
2017-04-23T00:31:22.014Z,8.60
2017-04-23T00:32:22.350Z,9.15
2017-04-23T00:33:22.439Z,8.32
2017-04-23T00:34:22.706Z,10.40
2017-04-23T00:35:22.347Z,6.78
2017-04-23T00:36:23.059Z,7.87
2017-04-23T00:37:22.606Z,5.98
2017-04-23T00:38:22.127Z,7.10
2017-04-23T00:39:22.350Z,10.37
2017-04-23T00:40:21.909Z,7.20
2017-04-23T00:41:21.562Z,6.22
2017-04-23T00:42:21.454Z,5.73
2017-04-23T00:43:20.987Z,8.27
2017-04-23T00:44:21.283Z,8.52
2017-04-23T00:45:20.817Z,8.02
2017-04-23T00:46:20.394Z,7.40
2017-04-23T00:47:20.839Z,11.52
2017-04-23T00:48:20.391Z,7.75
2017-04-23T00:49:19.984Z,7.25
2017-04-23T00:50:19.530Z,7.75
2017-04-23T00:51:19.051Z,8.65
2017-04-23T00:52:18.930Z,7.77
2017-04-23T00:53:18.446Z,8.95
2017-04-23T00:54:17.954Z,7.45
2017-04-23T00:55:17.663Z,9.53
2017-04-23T00:56:17.176Z,7.25
2017-04-23T00:57:16.704Z,8.12
2017-04-23T00:58:16.640Z,9.27
2017-04-23T00:59:16.170Z,11.40
2017-04-23T01:00:16.540Z,11.05
2017-04-23T01:01:16.531Z,10.30
2017-04-23T01:02:16.110Z,7.38
2017-04-23T01:03:16.366Z,7.32
2017-04-23T01:04:16.748Z,10.40
2017-04-23T01:05:17.011Z,8.95
2017-04-23T01:06:16.782Z,9.63
2017-04-23T01:07:16.783Z,8.85
2017-04-23T01:08:16.332Z,8.25
2017-04-23T01:09:16.923Z,10.72
2017-04-23T01:10:16.515Z,9.90
2017-04-23T01:11:16.068Z,9.77
2017-04-23T01:12:16.332Z,11.15
2017-04-23T01:13:16.051Z,9.00
2017-04-23T01:14:16.619Z,8.03
2017-04-23T01:15:16.355Z,12.08
2017-04-23T01:16:15.995Z,7.37
2017-04-23T01:17:15.535Z,7.52
2017-04-23T01:18:15.847Z,8.82
2017-04-23T01:19:15.431Z,11.80
2017-04-23T01:20:15.089Z,10.47
2017-04-23T01:21:14.651Z,14.40
2017-04-23T01:22:14.173Z,12.93
2017-04-23T01:23:13.760Z,9.67
2017-04-23T01:24:13.361Z,11.52
2017-04-23T01:25:12.924Z,8.63
2017-04-23T01:26:12.450Z,10.47
2017-04-23T01:27:11.999Z,9.83
2017-04-23T01:28:11.560Z,10.33
2017-04-23T01:29:11.091Z,11.10
2017-04-23T01:30:10.649Z,11.80
2017-04-23T01:31:10.580Z,11.48
2017-04-23T01:32:11.305Z,18.33
2017-04-23T01:33:11.666Z,8.82
2017-04-23T01:34:11.259Z,13.10
2017-04-23T01:35:11.000Z,11.35
2017-04-23T01:36:10.588Z,10.10
2017-04-23T01:37:10.127Z,11.27
2017-04-23T01:38:09.695Z,15.95
2017-04-23T01:39:09.451Z,10.73
2017-04-23T01:40:09.859Z,14.35
2017-04-23T01:41:09.431Z,17.38
2017-04-23T01:42:10.059Z,12.85
2017-04-23T01:43:10.358Z,11.18
2017-04-23T01:44:10.945Z,12.75
2017-04-23T01:45:10.651Z,16.40
2017-04-23T01:46:10.359Z,16.25
2017-04-23T01:47:10.307Z,17.08
2017-04-23T01:48:10.054Z,15.60
2017-04-23T01:49:09.603Z,13.23
2017-04-23T01:50:09.175Z,13.02
2017-04-23T01:51:08.723Z,13.83
2017-04-23T01:52:08.350Z,13.43
2017-04-23T01:53:07.908Z,17.10
2017-04-23T01:54:07.547Z,13.87
2017-04-23T01:55:07.112Z,13.53
2017-04-23T01:56:07.043Z,13.02
2017-04-23T01:57:06.570Z,16.53
2017-04-23T01:58:06.991Z,13.62
2017-04-23T01:59:07.499Z,13.67
2017-04-23T02:00:07.811Z,14.13
2017-04-23T02:01:07.410Z,13.68
2017-04-23T02:02:08.087Z,15.10
2017-04-23T02:03:07.763Z,11.38
2017-04-23T02:04:07.372Z,11.95
2017-04-23T02:05:07.340Z,15.85
2017-04-23T02:06:07.667Z,11.78
2017-04-23T02:07:08.031Z,14.50
2017-04-23T02:08:07.563Z,19.55
2017-04-23T02:09:07.351Z,14.95
2017-04-23T02:10:06.915Z,19.27
2017-04-23T02:11:06.482Z,11.33
2017-04-23T02:12:06.142Z,12.45
2017-04-23T02:13:05.851Z,13.25
2017-04-23T02:14:05.413Z,15.88
2017-04-23T02:15:05.574Z,14.03
2017-04-23T02:16:05.991Z,14.62
2017-04-23T02:17:06.319Z,14.02
2017-04-23T02:18:06.595Z,14.78
2017-04-23T02:19:06.506Z,14.72
2017-04-23T02:20:06.319Z,11.45
2017-04-23T02:21:06.590Z,13.30
2017-04-23T02:22:06.303Z,19.50
2017-04-23T02:23:05.886Z,13.72
2017-04-23T02:24:05.938Z,12.97
2017-04-23T02:25:05.628Z,14.42
2017-04-23T02:26:05.850Z,14.35
2017-04-23T02:27:05.531Z,10.52
2017-04-23T02:28:05.102Z,11.97
2017-04-23T02:29:04.662Z,11.17
2017-04-23T02:30:05.027Z,14.77
2017-04-23T02:31:04.552Z,13.17
2017-04-23T02:32:04.443Z,11.70
2017-04-23T02:33:04.042Z,12.12
2017-04-23T02:34:03.994Z,13.10
2017-04-23T02:35:04.375Z,12.35
2017-04-23T02:36:03.954Z,11.47
2017-04-23T02:37:03.470Z,14.17
2017-04-23T02:38:03.419Z,10.42
2017-04-23T02:39:03.488Z,19.82
2017-04-23T02:40:03.033Z,17.10
2017-04-23T02:41:02.614Z,11.72
2017-04-23T02:42:02.350Z,10.98
2017-04-23T02:43:02.020Z,14.12
2017-04-23T02:44:01.551Z,8.83
2017-04-23T02:45:01.102Z,13.00
2017-04-23T02:46:00.654Z,10.52
2017-04-23T02:47:00.178Z,12.62
2017-04-23T02:48:00.439Z,11.25
2017-04-23T02:49:00.070Z,10.68
2017-04-23T02:49:59.618Z,12.03
2017-04-23T02:50:59.145Z,9.98
2017-04-23T02:51:58.723Z,11.35
2017-04-23T02:52:58.415Z,11.02
2017-04-23T02:53:58.014Z,11.80
2017-04-23T02:54:57.502Z,8.18
2017-04-23T02:55:57.039Z,14.42
2017-04-23T02:56:56.554Z,7.58
2017-04-23T02:57:56.148Z,9.47
2017-04-23T02:58:55.858Z,8.85
2017-04-23T02:59:55.400Z,7.58
2017-04-23T03:00:55.336Z,10.23
2017-04-23T03:01:55.099Z,7.18
2017-04-23T03:02:56.151Z,11.45
2017-04-23T03:03:55.666Z,8.55
2017-04-23T03:04:55.199Z,6.98
2017-04-23T03:05:55.586Z,10.85
2017-04-23T03:06:55.118Z,10.87
2017-04-23T03:07:55.391Z,8.73
2017-04-23T03:08:54.920Z,10.20
2017-04-23T03:09:55.227Z,9.08
2017-04-23T03:10:54.808Z,10.17
2017-04-23T03:11:54.311Z,9.65
2017-04-23T03:12:54.031Z,8.78
2017-04-23T03:13:54.255Z,10.57
2017-04-23T03:14:54.167Z,10.50
2017-04-23T03:15:53.699Z,12.67
2017-04-23T03:16:53.690Z,10.50
2017-04-23T03:17:53.418Z,9.40
2017-04-23T03:18:52.950Z,10.08
2017-04-23T03:19:52.839Z,9.05
2017-04-23T03:20:52.415Z,11.53
2017-04-23T03:21:52.430Z,9.42
2017-04-23T03:22:52.630Z,8.43
2017-04-23T03:23:52.161Z,8.17
2017-04-23T03:24:51.696Z,8.30
2017-04-23T03:25:51.428Z,12.15
2017-04-23T03:26:51.129Z,6.97
2017-04-23T03:27:50.680Z,10.35
2017-04-23T03:28:50.212Z,12.68
2017-04-23T03:29:49.746Z,7.48
2017-04-23T03:30:50.060Z,11.18
2017-04-23T03:31:50.310Z,5.98
2017-04-23T03:32:49.864Z,6.73
2017-04-23T03:33:50.150Z,16.52
2017-04-23T03:34:49.686Z,9.73
2017-04-23T03:35:49.943Z,9.72
2017-04-23T03:36:49.666Z,8.70
2017-04-23T03:37:49.248Z,8.75
2017-04-23T03:38:48.804Z,9.00
2017-04-23T03:39:49.062Z,9.62
2017-04-23T03:40:48.623Z,10.28
2017-04-23T03:41:48.153Z,5.55
2017-04-23T03:42:47.715Z,8.47
2017-04-23T03:43:47.278Z,7.15
2017-04-23T03:44:46.894Z,7.13
2017-04-23T03:45:47.171Z,6.80
2017-04-23T03:46:46.714Z,7.33
2017-04-23T03:47:46.676Z,9.60
2017-04-23T03:48:46.207Z,7.70
2017-04-23T03:49:46.619Z,5.33
2017-04-23T03:50:46.899Z,7.47
2017-04-23T03:51:46.410Z,8.02
2017-04-23T03:52:45.949Z,8.73
2017-04-23T03:53:45.495Z,11.87
2017-04-23T03:54:45.080Z,6.80
2017-04-23T03:55:44.631Z,7.75
2017-04-23T03:56:44.150Z,7.52
2017-04-23T03:57:43.679Z,10.17
2017-04-23T03:58:43.338Z,7.30
2017-04-23T03:59:42.923Z,10.50
2017-04-23T04:00:42.469Z,8.58
2017-04-23T04:01:42.005Z,7.05
2017-04-23T04:02:42.623Z,10.17
2017-04-23T04:03:42.901Z,10.57
2017-04-23T04:04:42.418Z,8.28
2017-04-23T04:05:42.780Z,6.90
2017-04-23T04:06:42.323Z,11.43
2017-04-23T04:07:41.922Z,9.93
2017-04-23T04:08:41.567Z,6.23
2017-04-23T04:09:41.099Z,5.38
2017-04-23T04:10:40.622Z,8.80
2017-04-23T04:11:40.910Z,9.27
2017-04-23T04:12:40.491Z,11.60
2017-04-23T04:13:40.032Z,8.83
2017-04-23T04:14:40.312Z,8.28
2017-04-23T04:15:39.889Z,9.87
2017-04-23T04:16:39.438Z,7.42
2017-04-23T04:17:39.820Z,11.67
2017-04-23T04:18:39.351Z,7.23
2017-04-23T04:19:39.059Z,6.93
2017-04-23T04:20:39.518Z,14.52
2017-04-23T04:21:39.046Z,9.68
2017-04-23T04:22:38.575Z,11.07
2017-04-23T04:23:38.979Z,8.97
2017-04-23T04:24:39.486Z,6.83
2017-04-23T04:25:39.025Z,12.48
2017-04-23T04:26:38.935Z,9.68
2017-04-23T04:27:38.642Z,9.42
2017-04-23T04:28:38.215Z,9.28
2017-04-23T04:29:37.718Z,6.30
2017-04-23T04:30:37.356Z,10.22
2017-04-23T04:31:36.903Z,10.83
2017-04-23T04:32:37.496Z,8.73
2017-04-23T04:33:37.192Z,10.87
2017-04-23T04:34:36.726Z,11.15
2017-04-23T04:35:36.991Z,9.27
2017-04-23T04:36:36.611Z,6.93
2017-04-23T04:37:36.158Z,10.88
2017-04-23T04:38:35.752Z,13.65
2017-04-23T04:39:35.379Z,15.82
2017-04-23T04:40:34.906Z,7.25
2017-04-23T04:41:35.262Z,9.82
2017-04-23T04:42:34.842Z,10.83
2017-04-23T04:43:34.387Z,12.13
2017-04-23T04:44:33.991Z,10.42
2017-04-23T04:45:33.486Z,7.87
2017-04-23T04:46:33.020Z,9.33
2017-04-23T04:47:33.299Z,7.65
2017-04-23T04:48:32.879Z,9.48
2017-04-23T04:49:33.107Z,6.95
2017-04-23T04:50:32.607Z,11.20
2017-04-23T04:51:32.151Z,11.38
2017-04-23T04:52:32.067Z,4.97
2017-04-23T04:53:31.599Z,8.53
2017-04-23T04:54:31.150Z,5.80
2017-04-23T04:55:31.386Z,9.40
2017-04-23T04:56:31.203Z,7.68
2017-04-23T04:57:30.714Z,9.55
2017-04-23T04:58:30.413Z,10.38
2017-04-23T04:59:29.968Z,9.63
2017-04-23T05:00:29.636Z,6.88
2017-04-23T05:01:29.983Z,8.10
2017-04-23T05:02:29.582Z,8.25
2017-04-23T05:03:29.241Z,13.45
2017-04-23T05:04:28.831Z,12.17
2017-04-23T05:05:29.091Z,7.60
2017-04-23T05:06:28.621Z,9.55
2017-04-23T05:07:28.139Z,8.65
2017-04-23T05:08:28.518Z,5.33
2017-04-23T05:09:28.094Z,7.15
2017-04-23T05:10:27.619Z,7.32
2017-04-23T05:11:27.151Z,9.75
2017-04-23T05:12:26.863Z,10.32
2017-04-23T05:13:27.355Z,7.33
2017-04-23T05:14:26.887Z,5.65
2017-04-23T05:15:26.597Z,7.58
2017-04-23T05:16:26.225Z,12.22
2017-04-23T05:17:26.078Z,6.38
2017-04-23T05:18:26.423Z,8.42
2017-04-23T05:19:26.814Z,7.27
2017-04-23T05:20:27.096Z,8.97
2017-04-23T05:21:26.718Z,8.52
2017-04-23T05:22:26.990Z,7.30
2017-04-23T05:23:26.598Z,9.95
2017-04-23T05:24:26.331Z,6.37
2017-04-23T05:25:26.727Z,8.32
2017-04-23T05:26:26.322Z,11.13
2017-04-23T05:27:25.872Z,10.38
2017-04-23T05:28:25.399Z,9.08
2017-04-23T05:29:25.147Z,11.15
2017-04-23T05:30:24.650Z,6.93
2017-04-23T05:31:24.226Z,6.90
2017-04-23T05:32:24.547Z,8.05
2017-04-23T05:33:24.807Z,5.20
2017-04-23T05:34:24.332Z,9.85
2017-04-23T05:35:23.943Z,8.32
2017-04-23T05:36:23.804Z,10.95
2017-04-23T05:37:23.343Z,10.63
2017-04-23T05:38:23.062Z,14.38
2017-04-23T05:39:23.359Z,6.95
2017-04-23T05:40:23.638Z,7.70
2017-04-23T05:41:23.223Z,14.73
2017-04-23T05:42:22.771Z,5.23
2017-04-23T05:43:23.124Z,6.05
2017-04-23T05:44:22.735Z,7.88
2017-04-23T05:45:22.277Z,14.53
2017-04-23T05:46:21.855Z,11.28
2017-04-23T05:47:21.455Z,12.40
2017-04-23T05:48:20.984Z,7.78
2017-04-23T05:49:21.263Z,6.85
2017-04-23T05:50:21.478Z,10.05
2017-04-23T05:51:21.290Z,11.95
2017-04-23T05:52:21.011Z,9.70
2017-04-23T05:53:21.302Z,8.48
2017-04-23T05:54:20.831Z,9.77
2017-04-23T05:55:20.378Z,8.72
2017-04-23T05:56:19.971Z,7.63
2017-04-23T05:57:19.710Z,9.60
2017-04-23T05:58:20.112Z,10.12
2017-04-23T05:59:20.347Z,7.48
2017-04-23T06:00:20.838Z,11.28
2017-04-23T06:01:20.368Z,8.27
2017-04-23T06:02:20.751Z,9.72
2017-04-23T06:03:20.270Z,7.75
2017-04-23T06:04:20.521Z,8.23
2017-04-23T06:05:20.748Z,7.20
2017-04-23T06:06:20.322Z,7.45
2017-04-23T06:07:19.867Z,8.32
2017-04-23T06:08:19.424Z,8.93
2017-04-23T06:09:20.426Z,6.25
2017-04-23T06:10:20.887Z,10.63
2017-04-23T06:11:20.456Z,12.43
2017-04-23T06:12:20.024Z,7.18
2017-04-23T06:13:20.299Z,12.23
2017-04-23T06:14:19.802Z,7.10
2017-04-23T06:15:19.331Z,11.18
2017-04-23T06:16:19.822Z,8.67
2017-04-23T06:17:19.387Z,8.85
2017-04-23T06:18:18.996Z,11.90
2017-04-23T06:19:18.727Z,9.45
2017-04-23T06:20:18.236Z,9.65
2017-04-23T06:21:17.910Z,9.87
2017-04-23T06:22:17.451Z,8.95
2017-04-23T06:23:17.836Z,9.27
2017-04-23T06:24:17.398Z,11.65
2017-04-23T06:25:16.922Z,8.40
2017-04-23T06:26:16.452Z,7.98
2017-04-23T06:27:16.782Z,7.75
2017-04-23T06:28:16.358Z,7.90
2017-04-23T06:29:16.655Z,10.22
2017-04-23T06:30:16.444Z,12.85
2017-04-23T06:31:15.959Z,9.35
2017-04-23T06:32:15.491Z,8.97
2017-04-23T06:33:15.082Z,11.38
2017-04-23T06:34:15.883Z,10.07
2017-04-23T06:35:16.191Z,10.20
2017-04-23T06:36:15.766Z,8.72
2017-04-23T06:37:15.327Z,9.70
2017-04-23T06:38:14.839Z,12.70
2017-04-23T06:39:14.519Z,9.72
2017-04-23T06:40:14.425Z,7.64
2017-04-23T06:41:13.963Z,9.18
2017-04-23T06:42:13.479Z,10.33
2017-04-23T06:43:13.891Z,9.88
2017-04-23T06:44:13.495Z,7.73
2017-04-23T06:45:13.778Z,5.87
2017-04-23T06:46:13.303Z,6.77
2017-04-23T06:47:13.592Z,8.85
2017-04-23T06:48:13.123Z,7.40
2017-04-23T06:49:13.464Z,5.63
2017-04-23T06:50:12.993Z,13.08
2017-04-23T06:51:12.507Z,9.65
2017-04-23T06:52:12.039Z,8.00
2017-04-23T06:53:11.563Z,8.65
2017-04-23T06:54:11.169Z,10.27
2017-04-23T06:55:10.812Z,12.32
2017-04-23T06:56:11.071Z,9.68
2017-04-23T06:57:10.795Z,9.03
2017-04-23T06:58:10.332Z,12.88
2017-04-23T06:59:10.819Z,6.23
2017-04-23T07:00:11.270Z,6.47
2017-04-23T07:01:11.692Z,10.63
2017-04-23T07:02:11.978Z,12.75
2017-04-23T07:03:12.483Z,9.77
2017-04-23T07:04:12.070Z,8.15
2017-04-23T07:05:11.636Z,9.65
2017-04-23T07:06:12.606Z,9.20
2017-04-23T07:07:12.843Z,9.15
2017-04-23T07:08:13.114Z,11.07
2017-04-23T07:09:12.650Z,12.43
2017-04-23T07:10:12.315Z,11.62
2017-04-23T07:11:12.206Z,10.75
2017-04-23T07:12:11.740Z,10.42
2017-04-23T07:13:11.323Z,9.52
2017-04-23T07:14:11.024Z,10.02
2017-04-23T07:15:11.271Z,9.65
2017-04-23T07:16:11.552Z,8.50
2017-04-23T07:17:11.074Z,10.58
2017-04-23T07:18:11.472Z,10.95
2017-04-23T07:19:11.015Z,8.25
2017-04-23T07:20:10.670Z,13.23
2017-04-23T07:21:10.271Z,6.27
2017-04-23T07:22:09.816Z,6.12
2017-04-23T07:23:09.359Z,6.82
2017-04-23T07:24:08.881Z,6.92
2017-04-23T07:25:09.207Z,7.68
2017-04-23T07:26:08.751Z,7.40
2017-04-23T07:27:08.300Z,7.07
2017-04-23T07:28:08.571Z,7.85
2017-04-23T07:29:08.087Z,6.97
2017-04-23T07:30:07.635Z,11.22
2017-04-23T07:31:07.255Z,8.00
2017-04-23T07:32:07.152Z,6.00
2017-04-23T07:33:07.142Z,10.75
2017-04-23T07:34:06.699Z,10.68
2017-04-23T07:35:07.027Z,8.78
2017-04-23T07:36:07.726Z,8.75
2017-04-23T07:37:07.331Z,11.42
2017-04-23T07:38:06.852Z,9.68
2017-04-23T07:39:06.506Z,8.32
2017-04-23T07:40:06.334Z,10.42
2017-04-23T07:41:06.971Z,7.70
2017-04-23T07:42:07.235Z,9.42
2017-04-23T07:43:06.943Z,8.20
2017-04-23T07:44:06.488Z,13.57
2017-04-23T07:45:06.087Z,9.10
2017-04-23T07:46:05.639Z,8.93
2017-04-23T07:47:05.570Z,10.70
2017-04-23T07:48:05.828Z,9.15
2017-04-23T07:49:05.347Z,15.05
2017-04-23T07:50:04.939Z,9.13
2017-04-23T07:51:04.717Z,6.17
2017-04-23T07:52:04.439Z,4.88
2017-04-23T07:53:03.968Z,7.62
2017-04-23T07:54:03.911Z,6.63
2017-04-23T07:55:05.058Z,9.87
2017-04-23T07:56:05.059Z,6.67
2017-04-23T07:57:05.143Z,11.85
2017-04-23T07:58:04.681Z,6.38
2017-04-23T07:59:04.199Z,9.00
2017-04-23T08:00:04.170Z,7.20
2017-04-23T08:01:03.745Z,11.33
2017-04-23T08:02:03.337Z,6.27
2017-04-23T08:03:03.598Z,4.03
2017-04-23T08:04:03.207Z,4.48
2017-04-23T08:05:02.798Z,4.42
2017-04-23T08:06:02.503Z,10.13
2017-04-23T08:07:02.048Z,6.48
2017-04-23T08:08:01.638Z,5.93
2017-04-23T08:09:01.979Z,6.30
2017-04-23T08:10:01.550Z,2.12
2017-04-23T08:11:02.027Z,6.53
2017-04-23T08:12:01.762Z,7.23
2017-04-23T08:13:02.483Z,4.32
2017-04-23T08:14:02.711Z,7.53
2017-04-23T08:15:02.219Z,4.30
2017-04-23T08:16:01.747Z,7.37
2017-04-23T08:17:01.314Z,2.83
2017-04-23T08:18:01.075Z,7.20
2017-04-23T08:19:00.657Z,6.95
2017-04-23T08:20:00.766Z,4.63
2017-04-23T08:21:00.310Z,4.18
2017-04-23T08:22:00.063Z,6.85
2017-04-23T08:22:59.608Z,6.78
2017-04-23T08:23:59.156Z,5.62
2017-04-23T08:24:58.698Z,2.62
2017-04-23T08:25:58.239Z,4.13
2017-04-23T08:26:57.793Z,7.18
2017-04-23T08:27:57.559Z,3.77
2017-04-23T08:28:57.112Z,5.27
2017-04-23T08:29:56.728Z,8.08
2017-04-23T08:30:56.310Z,6.22
2017-04-23T08:31:56.260Z,4.90
2017-04-23T08:32:55.877Z,7.52
2017-04-23T08:33:56.160Z,7.92
2017-04-23T08:34:55.691Z,5.98
2017-04-23T08:35:56.015Z,4.02
2017-04-23T08:36:55.554Z,4.85
2017-04-23T08:37:55.168Z,5.32
2017-04-23T08:38:54.732Z,5.65
2017-04-23T08:39:54.654Z,4.23
2017-04-23T08:40:54.232Z,5.87
2017-04-23T08:41:55.609Z,5.65
2017-04-23T08:42:55.157Z,4.47
2017-04-23T08:43:58.636Z,4.83
2017-04-23T08:44:58.272Z,7.42
2017-04-23T08:45:58.294Z,3.03
2017-04-23T08:46:58.043Z,6.60
2017-04-23T08:47:58.348Z,9.10
2017-04-23T08:48:58.775Z,8.28
2017-04-23T08:49:59.106Z,4.03
2017-04-23T08:50:58.692Z,5.07
2017-04-23T08:51:58.879Z,6.25
2017-04-23T08:52:59.157Z,3.43
2017-04-23T08:53:58.704Z,4.57
2017-04-23T08:54:58.217Z,6.55
2017-04-23T08:55:57.802Z,4.43
2017-04-23T08:56:57.451Z,11.08
2017-04-23T08:57:57.019Z,6.05
2017-04-23T08:58:56.542Z,3.58
2017-04-23T08:59:56.115Z,3.63
2017-04-23T09:00:55.763Z,5.25
2017-04-23T09:01:55.354Z,3.78
2017-04-23T09:02:55.063Z,6.83
2017-04-23T09:03:55.464Z,3.98
2017-04-23T09:04:55.082Z,8.77
2017-04-23T09:05:54.645Z,4.68
2017-04-23T09:06:54.239Z,3.93
2017-04-23T09:07:53.820Z,7.05
2017-04-23T09:08:53.411Z,4.75
2017-04-23T09:09:52.975Z,6.82
2017-04-23T09:10:53.243Z,4.40
2017-04-23T09:11:52.858Z,6.22
2017-04-23T09:12:52.432Z,5.85
2017-04-23T09:13:51.985Z,6.05
2017-04-23T09:14:52.403Z,5.82
2017-04-23T09:15:52.822Z,7.23
2017-04-23T09:16:53.167Z,6.30
2017-04-23T09:17:52.763Z,5.62
2017-04-23T09:18:52.322Z,4.67
2017-04-23T09:19:51.859Z,3.48
2017-04-23T09:20:51.445Z,7.52
2017-04-23T09:21:51.003Z,6.55
2017-04-23T09:22:50.560Z,5.60
2017-04-23T09:23:50.177Z,5.73
2017-04-23T09:24:49.708Z,8.08
2017-04-23T09:25:49.999Z,4.42
2017-04-23T09:26:49.560Z,3.33
2017-04-23T09:27:49.167Z,4.27
2017-04-23T09:28:48.913Z,5.48
2017-04-23T09:29:49.294Z,6.97
2017-04-23T09:30:48.823Z,8.80
2017-04-23T09:31:48.414Z,7.67
2017-04-23T09:32:48.729Z,4.97
2017-04-23T09:33:48.572Z,6.12
2017-04-23T09:34:47.354Z,5.38
2017-04-23T09:35:46.913Z,5.65
2017-04-23T09:36:46.436Z,8.40
2017-04-23T09:37:46.499Z,5.88
2017-04-23T09:38:46.030Z,4.22
2017-04-23T09:39:46.727Z,5.02
2017-04-23T09:40:46.644Z,8.42
2017-04-23T09:41:46.987Z,4.35
2017-04-23T09:42:46.689Z,5.52
2017-04-23T09:43:46.403Z,3.55
2017-04-23T09:44:46.007Z,5.58
2017-04-23T09:45:45.658Z,3.20
2017-04-23T09:46:45.922Z,7.13
2017-04-23T09:47:45.464Z,5.68
2017-04-23T09:48:45.944Z,4.25
2017-04-23T09:49:45.907Z,4.68
2017-04-23T09:50:46.167Z,9.65
2017-04-23T09:51:46.100Z,6.50
2017-04-23T09:52:46.760Z,6.23
2017-04-23T09:53:46.385Z,3.02
2017-04-23T09:54:47.382Z,4.73
2017-04-23T09:55:47.602Z,6.32
2017-04-23T09:56:47.322Z,8.05
2017-04-23T09:57:47.627Z,4.35
2017-04-23T09:58:47.178Z,7.08
2017-04-23T09:59:46.820Z,4.70
2017-04-23T10:00:46.604Z,5.32
2017-04-23T10:01:47.128Z,4.12
2017-04-23T10:02:46.704Z,4.25
2017-04-23T10:03:47.093Z,6.38
2017-04-23T10:04:46.659Z,6.98
2017-04-23T10:05:46.403Z,4.60
2017-04-23T10:06:46.095Z,4.43
2017-04-23T10:07:45.736Z,4.78
2017-04-23T10:08:45.314Z,5.73
2017-04-23T10:09:45.787Z,3.60
2017-04-23T10:10:45.426Z,3.77
2017-04-23T10:11:44.962Z,5.60
2017-04-23T10:12:44.559Z,3.70
2017-04-23T10:13:45.803Z,4.32
2017-04-23T10:14:45.451Z,3.83
2017-04-23T10:15:45.241Z,6.83
2017-04-23T10:16:44.846Z,10.18
2017-04-23T10:17:44.468Z,4.80
2017-04-23T10:18:44.848Z,5.15
2017-04-23T10:19:44.390Z,8.10
2017-04-23T10:20:43.969Z,6.12
2017-04-23T10:21:44.266Z,7.92
2017-04-23T10:22:43.820Z,5.18
2017-04-23T10:23:43.407Z,5.27
2017-04-23T10:24:42.973Z,3.80
2017-04-23T10:25:42.518Z,4.47
2017-04-23T10:26:42.253Z,6.17
2017-04-23T10:27:41.807Z,6.85
2017-04-23T10:28:41.371Z,5.23
2017-04-23T10:29:41.635Z,4.90
2017-04-23T10:30:41.242Z,4.30
2017-04-23T10:31:40.972Z,4.98
2017-04-23T10:32:41.376Z,4.30
2017-04-23T10:33:41.619Z,4.88
2017-04-23T10:34:41.935Z,5.07
2017-04-23T10:35:42.294Z,4.82
2017-04-23T10:36:41.984Z,8.33
2017-04-23T10:37:41.583Z,5.48
2017-04-23T10:38:41.142Z,5.22
2017-04-23T10:39:41.459Z,3.82
2017-04-23T10:40:41.787Z,4.62
2017-04-23T10:41:41.427Z,4.15
2017-04-23T10:42:40.954Z,6.40
2017-04-23T10:43:40.528Z,4.75
2017-04-23T10:44:40.182Z,2.98
2017-04-23T10:45:39.783Z,2.95
2017-04-23T10:46:39.407Z,5.83
2017-04-23T10:47:39.348Z,3.32
2017-04-23T10:48:38.880Z,3.83
2017-04-23T10:49:39.859Z,5.27
2017-04-23T10:50:39.430Z,3.58
2017-04-23T10:51:39.114Z,3.95
2017-04-23T10:52:38.764Z,6.65
2017-04-23T10:53:38.703Z,4.90
2017-04-23T10:54:38.339Z,3.28
2017-04-23T10:55:37.943Z,3.87
2017-04-23T10:56:37.591Z,5.87
2017-04-23T10:57:37.856Z,5.90
2017-04-23T10:58:37.423Z,6.30
2017-04-23T10:59:37.077Z,4.15
2017-04-23T11:00:36.660Z,3.98
2017-04-23T11:01:36.905Z,5.37
2017-04-23T11:02:37.181Z,5.78
2017-04-23T11:03:36.750Z,6.07
2017-04-23T11:04:36.288Z,4.87
2017-04-23T11:05:35.812Z,6.38
2017-04-23T11:06:36.324Z,4.83
2017-04-23T11:07:35.895Z,4.12
2017-04-23T11:08:35.529Z,4.60
2017-04-23T11:09:35.879Z,5.65
2017-04-23T11:10:35.432Z,5.47
2017-04-23T11:11:35.748Z,5.42
2017-04-23T11:12:36.078Z,4.73
2017-04-23T11:13:36.467Z,3.45
2017-04-23T11:14:36.008Z,3.35
2017-04-23T11:15:35.574Z,5.78
2017-04-23T11:16:35.986Z,5.38
2017-04-23T11:17:36.312Z,5.47
2017-04-23T11:18:36.608Z,5.78
2017-04-23T11:19:36.144Z,5.85
2017-04-23T11:20:35.691Z,5.83
2017-04-23T11:21:35.237Z,5.90
2017-04-23T11:22:34.786Z,5.77
2017-04-23T11:23:34.399Z,6.48
2017-04-23T11:24:34.319Z,6.93
2017-04-23T11:25:33.888Z,3.72
2017-04-23T11:26:33.464Z,5.32
2017-04-23T11:27:33.068Z,6.43
2017-04-23T11:28:32.619Z,6.92
2017-04-23T11:29:32.287Z,4.65
2017-04-23T11:30:31.836Z,6.75
2017-04-23T11:31:32.063Z,4.72
2017-04-23T11:32:31.609Z,5.80
2017-04-23T11:33:31.814Z,5.42
2017-04-23T11:34:31.516Z,4.15
2017-04-23T11:35:31.039Z,6.32
2017-04-23T11:36:30.643Z,4.80
2017-04-23T11:37:30.206Z,6.47
2017-04-23T11:38:29.780Z,5.22
2017-04-23T11:39:29.323Z,4.68
2017-04-23T11:40:28.873Z,8.32
2017-04-23T11:41:28.412Z,5.23
2017-04-23T11:42:28.083Z,8.50
2017-04-23T11:43:27.628Z,5.62
2017-04-23T11:44:27.195Z,6.97
2017-04-23T11:45:26.778Z,4.28
2017-04-23T11:46:27.051Z,6.80
2017-04-23T11:47:26.631Z,8.40
2017-04-23T11:48:26.236Z,4.68
2017-04-23T11:49:25.776Z,5.38
2017-04-23T11:50:25.371Z,5.23
2017-04-23T11:51:24.947Z,4.38
2017-04-23T11:52:24.586Z,5.50
2017-04-23T11:53:24.184Z,5.52
2017-04-23T11:54:23.787Z,5.53
2017-04-23T11:55:23.359Z,6.53
2017-04-23T11:56:23.639Z,8.52
2017-04-23T11:57:23.205Z,5.50
2017-04-23T11:58:23.003Z,6.68
2017-04-23T11:59:22.664Z,6.97
2017-04-23T12:00:22.221Z,5.00
2017-04-23T12:01:21.776Z,4.93
2017-04-23T12:02:21.398Z,6.28
2017-04-23T12:03:20.943Z,4.52
2017-04-23T12:04:20.571Z,5.67
2017-04-23T12:05:20.164Z,8.33
2017-04-23T12:06:19.795Z,7.53
2017-04-23T12:07:19.387Z,4.85
2017-04-23T12:08:18.951Z,6.65
2017-04-23T12:09:18.504Z,7.63
2017-04-23T12:10:18.027Z,7.22
2017-04-23T12:11:17.552Z,5.87
2017-04-23T12:12:17.190Z,7.15
2017-04-23T12:13:16.767Z,9.32
2017-04-23T12:14:16.365Z,8.38
2017-04-23T12:15:15.933Z,8.18
2017-04-23T12:16:15.483Z,5.80
2017-04-23T12:17:15.223Z,6.57
2017-04-23T12:18:14.804Z,7.80
2017-04-23T12:19:14.351Z,8.10
2017-04-23T12:20:13.959Z,6.57
2017-04-23T12:21:13.589Z,5.73
2017-04-23T12:22:13.360Z,6.10
2017-04-23T12:23:12.899Z,6.60
2017-04-23T12:24:12.535Z,6.57
2017-04-23T12:25:12.108Z,4.27
2017-04-23T12:26:11.692Z,5.13
2017-04-23T12:27:11.263Z,4.78
2017-04-23T12:28:10.798Z,5.62
2017-04-23T12:29:10.350Z,7.12
2017-04-23T12:30:09.937Z,6.08
2017-04-23T12:31:09.607Z,9.33
2017-04-23T12:32:09.188Z,7.45
2017-04-23T12:33:09.508Z,4.18
2017-04-23T12:34:09.141Z,4.32
2017-04-23T12:35:09.445Z,8.87
2017-04-23T12:36:09.008Z,4.98
2017-04-23T12:37:09.344Z,5.07
2017-04-23T12:38:08.937Z,6.95
2017-04-23T12:39:09.238Z,4.50
2017-04-23T12:40:08.828Z,5.80
2017-04-23T12:41:08.386Z,5.93
2017-04-23T12:42:08.198Z,6.67
2017-04-23T12:43:08.252Z,8.15
2017-04-23T12:44:07.792Z,4.77
2017-04-23T12:45:07.391Z,4.80
2017-04-23T12:46:06.964Z,8.30
2017-04-23T12:47:06.549Z,6.02
2017-04-23T12:48:06.153Z,6.52
2017-04-23T12:49:05.785Z,5.43
2017-04-23T12:50:05.339Z,6.77
2017-04-23T12:51:04.884Z,4.45
2017-04-23T12:52:04.422Z,6.60
2017-04-23T12:53:04.659Z,6.10
2017-04-23T12:54:04.316Z,5.75
2017-04-23T12:55:03.886Z,6.25
2017-04-23T12:56:03.500Z,8.13
2017-04-23T12:57:03.124Z,6.27
2017-04-23T12:58:03.356Z,5.38
2017-04-23T12:59:02.918Z,4.82
2017-04-23T13:00:02.507Z,7.32
2017-04-23T13:01:02.089Z,6.83
2017-04-23T13:02:01.988Z,6.47
2017-04-23T13:03:01.535Z,7.23
2017-04-23T13:04:01.174Z,5.88
2017-04-23T13:05:01.418Z,6.03
2017-04-23T13:06:01.050Z,6.38
2017-04-23T13:07:00.770Z,6.97
2017-04-23T13:08:01.127Z,7.58
2017-04-23T13:09:00.918Z,7.40